createdAt,value
2022-11-24T00:02:15.031Z,7.68
2022-11-24T00:04:45.845Z,7.57
2022-11-24T00:07:16.602Z,7.80
2022-11-24T00:09:47.086Z,7.97
2022-11-24T00:12:20.199Z,8.82
2022-11-24T00:14:50.661Z,9.20
2022-11-24T00:17:21.118Z,9.25
2022-11-24T00:19:51.526Z,8.98
2022-11-24T00:22:21.954Z,8.13
2022-11-24T00:24:52.500Z,9.32
2022-11-24T00:27:25.585Z,7.88
2022-11-24T00:29:56.098Z,7.60
2022-11-24T00:32:26.529Z,8.15
2022-11-24T00:34:57.056Z,9.05
2022-11-24T00:37:27.653Z,8.68
2022-11-24T00:39:58.150Z,7.95
2022-11-24T00:42:31.272Z,8.90
2022-11-24T00:45:12.948Z,9.48
2022-11-24T00:47:44.163Z,9.50
2022-11-24T00:50:14.677Z,7.45
2022-11-24T00:52:45.098Z,7.60
2022-11-24T00:55:15.625Z,7.78
2022-11-24T00:57:48.747Z,7.90
2022-11-24T01:00:20.884Z,7.38
2022-11-24T01:02:51.332Z,6.75
2022-11-24T01:05:21.884Z,6.13
2022-11-24T01:07:52.412Z,5.70
2022-11-24T01:10:23.000Z,6.88
2022-11-24T01:12:56.047Z,6.40
2022-11-24T01:15:26.719Z,5.55
2022-11-24T01:17:57.185Z,5.55
2022-11-24T01:20:27.774Z,7.68
2022-11-24T01:22:58.215Z,5.97
2022-11-24T01:25:28.783Z,5.57
2022-11-24T01:28:01.888Z,5.88
2022-11-24T01:30:32.487Z,6.80
2022-11-24T01:33:03.023Z,7.00
2022-11-24T01:35:33.635Z,6.35
2022-11-24T01:38:04.264Z,5.80
2022-11-24T01:40:34.810Z,6.20
2022-11-24T01:43:19.265Z,5.68
2022-11-24T01:45:51.202Z,4.45
2022-11-24T01:48:27.730Z,4.63
2022-11-24T01:51:06.843Z,4.88
2022-11-24T01:53:37.492Z,4.57
2022-11-24T01:56:09.866Z,4.38
2022-11-24T01:58:46.115Z,4.55
2022-11-24T02:01:16.884Z,5.10
2022-11-24T02:03:50.129Z,4.78
2022-11-24T02:06:24.401Z,4.78
2022-11-24T02:09:01.197Z,4.63
2022-11-24T02:11:36.794Z,4.68
2022-11-24T02:16:44.610Z,5.00
2022-11-24T02:19:21.518Z,4.65
2022-11-24T02:21:51.980Z,4.68
2022-11-24T02:24:28.651Z,4.68
2022-11-24T02:27:01.971Z,4.72
2022-11-24T02:29:32.638Z,4.63
2022-11-24T02:32:08.374Z,4.80
2022-11-24T02:34:38.998Z,4.05
2022-11-24T02:37:09.635Z,4.45
2022-11-24T02:39:40.198Z,4.05
2022-11-24T02:42:16.838Z,4.35
2022-11-24T02:44:52.226Z,4.40
2022-11-24T02:49:53.140Z,4.80
2022-11-24T02:52:24.007Z,5.85
2022-11-24T02:54:54.423Z,5.60
2022-11-24T02:57:28.210Z,7.15
2022-11-24T02:59:58.874Z,6.07
2022-11-24T03:02:29.581Z,5.20
2022-11-24T03:05:00.040Z,4.43
2022-11-24T03:07:30.638Z,4.65
2022-11-24T03:10:01.126Z,4.05
2022-11-24T03:12:34.472Z,3.92
2022-11-24T03:15:05.464Z,7.43
2022-11-24T03:17:36.053Z,7.93
2022-11-24T03:20:06.915Z,8.10
2022-11-24T03:22:37.452Z,8.95
2022-11-24T03:25:08.804Z,8.70
2022-11-24T03:27:41.969Z,7.70
2022-11-24T03:30:13.250Z,8.18
2022-11-24T03:32:43.771Z,7.68
2022-11-24T03:35:14.426Z,5.90
2022-11-24T03:37:44.979Z,4.90
2022-11-24T03:40:16.245Z,4.00
2022-11-24T03:42:49.379Z,4.22
2022-11-24T03:45:45.031Z,4.63
2022-11-24T03:48:10.821Z,4.15
2022-11-24T03:50:41.420Z,3.95
2022-11-24T03:53:12.080Z,6.50
2022-11-24T03:55:42.589Z,7.15
2022-11-24T03:58:15.611Z,5.45
2022-11-24T04:00:46.183Z,5.88
2022-11-24T04:03:16.632Z,5.03
2022-11-24T04:05:47.229Z,6.10
2022-11-24T04:08:18.489Z,6.40
2022-11-24T04:10:53.019Z,7.10
2022-11-24T04:13:25.857Z,6.30
2022-11-24T04:15:56.771Z,5.57
2022-11-24T04:18:27.305Z,5.40
2022-11-24T04:20:57.870Z,4.72
2022-11-24T04:23:28.842Z,4.40
2022-11-24T04:25:59.452Z,5.05
2022-11-24T04:28:32.553Z,5.22
2022-11-24T04:31:05.504Z,5.57
2022-11-24T04:33:36.367Z,5.15
2022-11-24T04:36:07.507Z,4.97
2022-11-24T04:39:19.652Z,5.82
2022-11-24T04:41:28.455Z,5.20
2022-11-24T04:44:01.501Z,4.60
2022-11-24T04:46:32.410Z,5.07
2022-11-24T04:49:02.985Z,6.43
2022-11-24T04:51:33.605Z,8.27
2022-11-24T04:54:04.000Z,8.48
2022-11-24T04:56:34.689Z,7.63
2022-11-24T04:59:08.674Z,7.35
2022-11-24T05:01:39.409Z,6.07
2022-11-24T05:04:12.546Z,6.13
2022-11-24T05:06:43.652Z,7.88
2022-11-24T05:09:17.965Z,7.38
2022-11-24T05:11:48.651Z,9.73
2022-11-24T05:14:21.823Z,8.68
2022-11-24T05:16:52.353Z,8.07
2022-11-24T05:19:22.872Z,9.00
2022-11-24T05:21:54.637Z,8.15
2022-11-24T05:24:25.351Z,7.75
2022-11-24T05:26:55.998Z,6.60
2022-11-24T05:29:29.073Z,8.20
2022-11-24T05:32:01.694Z,7.45
2022-11-24T05:34:33.758Z,10.20
2022-11-24T05:37:05.207Z,10.35
2022-11-24T05:39:36.375Z,8.63
2022-11-24T05:42:21.075Z,9.43
2022-11-24T05:44:54.525Z,10.88
2022-11-24T05:47:25.852Z,10.73
2022-11-24T05:49:56.682Z,10.98
2022-11-24T05:52:27.241Z,11.52
2022-11-24T05:54:57.703Z,10.80
2022-11-24T05:57:28.367Z,11.18
2022-11-24T06:00:01.444Z,12.45
2022-11-24T06:02:32.469Z,10.90
2022-11-24T06:05:02.980Z,10.05
2022-11-24T06:07:33.584Z,15.57
2022-11-24T06:10:04.185Z,11.30
2022-11-24T06:12:36.378Z,13.00
2022-11-24T06:15:11.752Z,11.82
2022-11-24T06:17:42.829Z,8.80
2022-11-24T06:20:14.583Z,9.38
2022-11-24T06:22:45.074Z,9.32
2022-11-24T06:25:16.415Z,42.47
2022-11-24T06:27:47.000Z,16.60
2022-11-24T06:30:20.698Z,13.88
2022-11-24T06:32:51.182Z,13.13
2022-11-24T06:35:21.598Z,8.65
2022-11-24T06:37:52.136Z,9.98
2022-11-24T06:40:22.682Z,17.60
2022-11-24T06:42:54.464Z,16.60
2022-11-24T06:45:27.662Z,14.90
2022-11-24T06:47:58.664Z,14.32
2022-11-24T06:50:33.442Z,13.93
2022-11-24T06:53:04.355Z,15.60
2022-11-24T06:55:34.794Z,20.50
2022-11-24T06:58:05.390Z,36.90
2022-11-24T07:00:39.742Z,20.73
2022-11-24T07:03:10.311Z,24.10
2022-11-24T07:05:40.890Z,16.45
2022-11-24T07:08:16.284Z,13.15
2022-11-24T07:10:48.611Z,10.85
2022-11-24T07:13:19.220Z,10.23
2022-11-24T07:15:52.268Z,7.60
2022-11-24T07:18:22.783Z,6.47
2022-11-24T07:20:55.229Z,10.10
2022-11-24T07:23:25.781Z,10.10
2022-11-24T07:25:56.930Z,8.02
2022-11-24T07:28:27.583Z,5.97
2022-11-24T07:31:00.800Z,5.68
2022-11-24T07:33:31.283Z,5.97
2022-11-24T07:36:03.169Z,5.57
2022-11-24T07:38:34.589Z,7.10
2022-11-24T07:41:05.473Z,5.93
2022-11-24T07:43:37.545Z,7.05
2022-11-24T07:46:14.410Z,6.40
2022-11-24T07:48:45.216Z,5.93
2022-11-24T07:51:16.080Z,5.75
2022-11-24T07:53:47.082Z,7.47
2022-11-24T07:56:17.590Z,6.95
2022-11-24T07:58:52.652Z,7.32
2022-11-24T08:01:26.180Z,6.95
2022-11-24T08:03:57.014Z,7.47
2022-11-24T08:06:35.439Z,8.23
2022-11-24T08:09:09.080Z,8.35
2022-11-24T08:11:39.651Z,8.45
2022-11-24T08:14:10.278Z,7.82
2022-11-24T08:16:43.574Z,8.18
2022-11-24T08:19:14.660Z,7.85
2022-11-24T08:21:45.115Z,7.97
2022-11-24T08:24:16.568Z,6.93
2022-11-24T08:26:47.046Z,6.97
2022-11-24T08:29:17.607Z,7.55
2022-11-24T08:31:50.970Z,12.48
2022-11-24T08:34:21.445Z,6.90
2022-11-24T08:36:51.934Z,6.88
2022-11-24T08:39:22.507Z,7.07
2022-11-24T08:41:54.950Z,7.65
2022-11-24T08:44:25.975Z,7.20
2022-11-24T08:46:59.824Z,7.43
2022-11-24T08:49:30.648Z,7.60
2022-11-24T08:52:01.409Z,6.65
2022-11-24T08:54:32.412Z,6.35
2022-11-24T08:57:03.041Z,6.80
2022-11-24T08:59:33.675Z,6.80
2022-11-24T09:02:06.818Z,6.90
2022-11-24T09:04:38.716Z,7.10
2022-11-24T09:07:09.515Z,7.38
2022-11-24T09:09:40.203Z,8.60
2022-11-24T09:12:14.648Z,9.00
2022-11-24T09:14:45.500Z,8.77
2022-11-24T09:17:18.682Z,7.97
2022-11-24T09:19:50.009Z,8.80
2022-11-24T09:22:20.732Z,7.85
2022-11-24T09:24:51.363Z,7.32
2022-11-24T09:27:21.994Z,8.43
2022-11-24T09:29:52.553Z,9.55
2022-11-24T09:32:26.094Z,8.52
2022-11-24T09:34:56.553Z,9.30
2022-11-24T09:37:32.471Z,8.52
2022-11-24T09:40:03.282Z,7.72
2022-11-24T09:42:40.801Z,7.50
2022-11-24T09:45:35.394Z,8.10
2022-11-24T09:48:18.040Z,8.63
2022-11-24T09:50:51.516Z,8.15
2022-11-24T09:53:31.925Z,10.02
2022-11-24T09:56:06.631Z,8.75
2022-11-24T09:58:43.346Z,6.85
2022-11-24T10:01:19.734Z,8.95
2022-11-24T10:03:54.254Z,9.45
2022-11-24T10:06:30.822Z,10.38
2022-11-24T10:09:21.376Z,11.10
2022-11-24T10:12:01.684Z,9.68
2022-11-24T10:15:05.094Z,9.90
2022-11-24T10:17:51.822Z,9.30
2022-11-24T10:20:31.913Z,9.70
2022-11-24T10:23:20.409Z,8.60
2022-11-24T10:25:57.548Z,8.85
2022-11-24T10:28:35.293Z,8.85
2022-11-24T10:31:23.191Z,9.77
2022-11-24T10:33:53.972Z,8.63
2022-11-24T10:36:37.038Z,9.38
2022-11-24T10:39:16.532Z,9.75
2022-11-24T10:41:54.466Z,10.20
2022-11-24T10:44:28.016Z,10.52
2022-11-24T10:46:58.723Z,10.13
2022-11-24T10:49:33.532Z,10.05
2022-11-24T10:52:14.769Z,10.43
2022-11-24T10:54:58.904Z,10.82
2022-11-24T10:57:34.560Z,11.10
2022-11-24T11:00:08.539Z,10.73
2022-11-24T11:02:41.251Z,10.27
2022-11-24T11:05:38.252Z,11.43
2022-11-24T11:08:26.738Z,10.77
2022-11-24T11:11:16.181Z,11.57
2022-11-24T11:14:03.570Z,10.77
2022-11-24T11:16:39.022Z,12.18
2022-11-24T11:19:55.418Z,11.40
2022-11-24T11:25:17.784Z,12.77
2022-11-24T11:27:48.476Z,13.32
2022-11-24T11:36:18.898Z,13.60
2022-11-24T11:38:50.892Z,12.40
2022-11-24T11:41:29.395Z,12.93
2022-11-24T11:44:12.072Z,13.27
2022-11-24T11:46:42.728Z,11.88
2022-11-24T11:49:15.414Z,12.82
2022-11-24T11:51:59.421Z,11.45
2022-11-24T11:54:41.280Z,11.23
2022-11-24T11:57:25.630Z,11.00
2022-11-24T12:00:10.956Z,11.05
2022-11-24T12:03:08.570Z,11.20
2022-11-24T12:05:50.781Z,11.40
2022-11-24T12:09:03.235Z,10.70
2022-11-24T12:11:37.208Z,11.48
2022-11-24T12:14:25.444Z,10.65
2022-11-24T12:17:05.190Z,11.88
2022-11-24T12:19:48.620Z,12.82
2022-11-24T12:22:28.069Z,14.23
2022-11-24T12:25:03.617Z,15.13
2022-11-24T12:27:47.431Z,14.43
2022-11-24T12:30:22.899Z,14.75
2022-11-24T12:35:49.598Z,12.15
2022-11-24T12:38:38.965Z,13.80
2022-11-24T12:41:43.451Z,13.52
2022-11-24T12:44:25.100Z,13.32
2022-11-24T12:47:08.913Z,15.02
2022-11-24T12:49:51.693Z,14.88
2022-11-24T12:52:29.041Z,13.40
2022-11-24T12:55:01.332Z,13.63
2022-11-24T12:57:39.084Z,13.38
2022-11-24T13:00:19.729Z,12.10
2022-11-24T13:03:08.556Z,11.68
2022-11-24T13:05:49.147Z,13.43
2022-11-24T13:08:19.768Z,15.43
2022-11-24T13:10:58.226Z,17.98
2022-11-24T13:13:51.140Z,15.43
2022-11-24T13:16:53.228Z,9.52
2022-11-24T13:19:20.058Z,10.40
2022-11-24T13:22:06.499Z,10.40
2022-11-24T13:24:39.348Z,11.25
2022-11-24T13:27:30.640Z,9.63
2022-11-24T13:30:01.384Z,9.05
2022-11-24T13:32:50.207Z,12.55
2022-11-24T13:35:23.432Z,13.80
2022-11-24T13:37:57.811Z,12.75
2022-11-24T13:41:12.949Z,13.68
2022-11-24T13:43:37.714Z,14.10
2022-11-24T13:46:08.301Z,14.43
2022-11-24T13:49:04.104Z,13.13
2022-11-24T13:51:37.325Z,12.52
2022-11-24T13:54:14.022Z,11.95
2022-11-24T13:56:44.514Z,11.63
2022-11-24T13:59:30.490Z,10.18
2022-11-24T14:04:43.435Z,9.70
2022-11-24T14:07:18.273Z,10.88
2022-11-24T14:09:51.075Z,11.20
2022-11-24T14:12:26.921Z,12.10
2022-11-24T14:15:15.779Z,11.18
2022-11-24T14:17:46.249Z,11.13
2022-11-24T14:20:25.234Z,10.48
2022-11-24T14:22:58.378Z,10.32
2022-11-24T14:25:32.939Z,11.35
2022-11-24T14:28:03.527Z,9.70
2022-11-24T14:30:34.074Z,10.57
2022-11-24T14:33:06.758Z,10.57
2022-11-24T14:35:38.750Z,10.27
2022-11-24T14:38:15.096Z,9.50
2022-11-24T14:40:48.420Z,9.15
2022-11-24T14:43:25.206Z,12.00
2022-11-24T14:45:58.921Z,28.20
2022-11-24T14:48:32.283Z,9.95
2022-11-24T14:51:15.841Z,9.60
2022-11-24T14:53:52.540Z,9.82
2022-11-24T14:56:28.467Z,9.80
2022-11-24T14:59:00.480Z,9.93
2022-11-24T15:01:36.472Z,8.90
2022-11-24T15:04:38.894Z,9.30
2022-11-24T15:07:18.171Z,12.02
2022-11-24T15:10:54.208Z,14.23
2022-11-24T15:17:34.125Z,11.63
2022-11-24T15:20:11.229Z,13.10
2022-11-24T15:22:44.564Z,12.80
2022-11-24T15:25:41.571Z,12.30
2022-11-24T15:28:12.176Z,11.55
2022-11-24T15:30:42.757Z,11.10
2022-11-24T15:33:18.543Z,11.90
2022-11-24T15:35:49.342Z,9.60
2022-11-24T15:38:20.382Z,10.07
2022-11-24T15:40:55.342Z,9.95
2022-11-24T15:43:32.201Z,11.65
2022-11-24T15:46:03.989Z,11.40
2022-11-24T15:48:34.739Z,10.90
2022-11-24T15:51:08.447Z,10.85
2022-11-24T15:53:42.675Z,14.00
2022-11-24T15:56:26.595Z,13.30
2022-11-24T15:58:57.223Z,11.55
2022-11-24T16:01:33.250Z,13.82
2022-11-24T16:04:04.080Z,15.00
2022-11-24T16:06:37.949Z,13.73
2022-11-24T16:09:08.658Z,15.82
2022-11-24T16:11:41.906Z,13.13
2022-11-24T16:14:12.479Z,12.65
2022-11-24T16:16:43.236Z,12.07
2022-11-24T16:19:16.059Z,12.98
2022-11-24T16:21:46.769Z,16.92
2022-11-24T16:24:17.350Z,16.80
2022-11-24T16:26:50.606Z,12.45
2022-11-24T16:29:23.845Z,11.50
2022-11-24T16:31:55.220Z,13.32
2022-11-24T16:34:25.983Z,10.48
2022-11-24T16:36:56.620Z,14.25
2022-11-24T16:39:27.321Z,18.10
2022-11-24T16:45:22.356Z,16.25
2022-11-24T16:47:53.207Z,16.67
2022-11-24T16:50:23.945Z,14.13
2022-11-24T16:52:54.579Z,18.38
2022-11-24T16:55:25.466Z,16.77
2022-11-24T16:57:56.366Z,14.13
2022-11-24T17:00:29.928Z,14.60
2022-11-24T17:03:00.750Z,18.10
2022-11-24T17:05:31.450Z,24.33
2022-11-24T17:08:02.554Z,24.42
2022-11-24T17:10:34.169Z,20.23
2022-11-24T17:13:05.869Z,17.13
2022-11-24T17:15:46.192Z,16.92
2022-11-24T17:18:26.835Z,16.35
2022-11-24T17:21:05.972Z,18.38
2022-11-24T17:23:40.063Z,18.23
2022-11-24T17:26:13.692Z,17.52
2022-11-24T17:28:44.997Z,21.58
2022-11-24T17:31:23.259Z,20.80
2022-11-24T17:33:55.527Z,19.17
2022-11-24T17:36:26.498Z,19.20
2022-11-24T17:38:58.360Z,23.27
2022-11-24T17:41:28.950Z,23.98
2022-11-24T17:43:59.737Z,19.25
2022-11-24T17:46:34.151Z,16.60
2022-11-24T17:49:04.782Z,18.13
2022-11-24T17:51:35.622Z,18.30
2022-11-24T17:54:31.261Z,20.00
2022-11-24T17:56:56.842Z,15.35
2022-11-24T17:59:28.578Z,14.48
2022-11-24T18:02:02.121Z,13.85
2022-11-24T18:04:34.118Z,11.88
2022-11-24T18:07:05.603Z,11.18
2022-11-24T18:09:37.295Z,11.77
2022-11-24T18:12:08.817Z,12.05
2022-11-24T18:14:39.818Z,11.45
2022-11-24T18:17:13.524Z,13.02
2022-11-24T18:19:44.834Z,8.77
2022-11-24T18:25:58.310Z,18.08
2022-11-24T18:28:29.745Z,23.50
2022-11-24T18:31:04.921Z,12.43
2022-11-24T18:33:36.020Z,13.30
2022-11-24T18:36:07.680Z,12.50
2022-11-24T18:42:59.363Z,13.98
2022-11-24T18:45:30.283Z,13.45
2022-11-24T18:48:00.978Z,14.35
2022-11-24T18:50:31.537Z,14.80
2022-11-24T18:53:02.611Z,13.15
2022-11-24T18:55:35.763Z,15.35
2022-11-24T18:58:06.327Z,15.48
2022-11-24T19:00:37.179Z,18.08
2022-11-24T19:03:07.781Z,15.98
2022-11-24T19:05:38.602Z,14.07
2022-11-24T19:08:09.332Z,14.00
2022-11-24T19:10:45.470Z,14.27
2022-11-24T19:13:16.704Z,12.60
2022-11-24T19:15:48.794Z,12.07
2022-11-24T19:18:19.557Z,13.15
2022-11-24T19:20:50.253Z,15.93
2022-11-24T19:23:21.455Z,21.80
2022-11-24T19:25:54.809Z,24.17
2022-11-24T19:28:25.449Z,25.63
2022-11-24T19:30:56.410Z,39.47
2022-11-24T19:33:26.971Z,41.65
2022-11-24T19:36:03.769Z,44.10
2022-11-24T19:38:35.074Z,40.20
2022-11-24T19:41:10.872Z,37.28
2022-11-24T19:43:42.486Z,38.67
2022-11-24T19:46:15.648Z,35.97
2022-11-24T19:48:48.913Z,33.13
2022-11-24T19:51:21.280Z,31.73
2022-11-24T19:53:51.763Z,29.13
2022-11-24T19:56:27.785Z,29.33
2022-11-24T19:58:59.161Z,28.50
2022-11-24T20:01:31.188Z,26.05
2022-11-24T20:04:04.161Z,28.42
2022-11-24T20:06:36.923Z,27.48
2022-11-24T20:09:10.044Z,26.27
2022-11-24T20:11:43.744Z,23.45
2022-11-24T20:14:15.760Z,21.17
2022-11-24T20:16:48.064Z,26.48
2022-11-24T20:19:20.403Z,25.70
2022-11-24T20:21:52.061Z,22.05
2022-11-24T20:24:24.056Z,20.48
2022-11-24T20:27:00.408Z,19.98
2022-11-24T20:29:33.971Z,16.13
2022-11-24T20:32:06.312Z,13.25
2022-11-24T20:34:37.769Z,14.95
2022-11-24T20:37:13.748Z,13.30
2022-11-24T20:39:47.381Z,11.57
2022-11-24T20:42:20.593Z,9.35
2022-11-24T20:44:51.329Z,8.52
2022-11-24T20:47:22.193Z,10.55
2022-11-24T20:49:52.817Z,12.68
2022-11-24T20:52:23.387Z,11.23
2022-11-24T20:54:54.077Z,8.55
2022-11-24T20:57:27.407Z,7.80
2022-11-24T20:59:58.092Z,8.18
2022-11-24T21:02:29.004Z,9.75
2022-11-24T21:04:59.705Z,8.95
2022-11-24T21:07:30.382Z,7.32
2022-11-24T21:10:01.124Z,7.85
2022-11-24T21:12:35.067Z,6.53
2022-11-24T21:15:07.863Z,6.80
2022-11-24T21:17:39.387Z,6.13
2022-11-24T21:20:11.698Z,6.65
2022-11-24T21:22:42.360Z,8.43
2022-11-24T21:25:13.185Z,8.40
2022-11-24T21:27:46.425Z,9.13
2022-11-24T21:30:17.733Z,6.93
2022-11-24T21:32:48.505Z,7.75
2022-11-24T21:35:19.709Z,8.00
2022-11-24T21:37:50.897Z,7.60
2022-11-24T21:40:21.804Z,8.85
2022-11-24T21:42:54.979Z,9.05
2022-11-24T21:45:25.655Z,9.85
2022-11-24T21:47:56.214Z,9.63
2022-11-24T21:50:26.802Z,9.05
2022-11-24T21:53:02.140Z,9.10
2022-11-24T21:55:35.341Z,12.52
2022-11-24T21:58:08.986Z,10.18
2022-11-24T22:00:39.682Z,9.63
2022-11-24T22:03:10.305Z,10.43
2022-11-24T22:05:40.806Z,9.95
2022-11-24T22:08:11.313Z,11.23
2022-11-24T22:10:41.984Z,10.25
2022-11-24T22:13:15.192Z,7.10
2022-11-24T22:15:46.030Z,6.03
2022-11-24T22:18:16.627Z,6.35
2022-11-24T22:20:47.366Z,6.88
2022-11-24T22:23:17.973Z,10.15
2022-11-24T22:25:48.611Z,7.88
2022-11-24T22:28:21.761Z,6.63
2022-11-24T22:30:52.464Z,5.03
2022-11-24T22:33:23.315Z,6.10
2022-11-24T22:35:59.993Z,7.68
2022-11-24T22:38:31.533Z,5.40
2022-11-24T22:41:06.077Z,4.63
2022-11-24T22:43:40.327Z,4.10
2022-11-24T22:46:12.396Z,3.60
2022-11-24T22:48:44.237Z,3.17
2022-11-24T22:51:16.457Z,3.60
2022-11-24T22:53:50.522Z,3.05
2022-11-24T22:56:21.757Z,2.72
2022-11-24T22:58:55.007Z,2.40
2022-11-24T23:01:27.045Z,2.90
2022-11-24T23:03:57.845Z,2.70
2022-11-24T23:06:30.060Z,2.80
2022-11-24T23:09:02.295Z,2.72
2022-11-24T23:11:37.650Z,3.33
2022-11-24T23:14:15.395Z,2.40
2022-11-24T23:16:46.559Z,2.33
2022-11-24T23:19:17.096Z,2.58
2022-11-24T23:21:47.750Z,2.03
2022-11-24T23:24:18.414Z,2.45
2022-11-24T23:26:49.087Z,2.80
2022-11-24T23:29:22.506Z,2.15
2022-11-24T23:31:53.304Z,1.98
2022-11-24T23:34:24.306Z,2.22
2022-11-24T23:36:54.898Z,2.22
2022-11-24T23:39:25.428Z,2.30
2022-11-24T23:41:55.895Z,1.88
2022-11-24T23:44:30.480Z,1.88
2022-11-24T23:47:01.039Z,2.00
2022-11-24T23:49:32.869Z,2.20
2022-11-24T23:52:03.500Z,1.98
2022-11-24T23:54:34.222Z,1.92
2022-11-24T23:57:05.021Z,1.88
2022-11-24T23:59:38.161Z,1.92
